Time;durP1;ratioP1;P1;durP2;ratioP2;P2;SDS_P1;SDS_P2;PMS_P1;PMS_P2;Temp;Humidity;BMP_temperature;BMP_pressure;BME280_temperature;BME280_humidity;BME280_pressure;Samples;Min_cycle;Max_cycle;Signal;HPM_P1;HPM_P2
2023/02/27 00:02:07;;;;;;;1.83;1.33;;;-0.80;62.50;;;2.53;42.06;97997.22;5072700;28;20512;-45
2023/02/27 00:04:35;;;;;;;3.10;1.40;;;-0.80;62.50;;;2.51;42.05;98001.75;5072270;28;20049;-49
2023/02/27 00:07:02;;;;;;;2.80;1.47;;;-0.80;62.40;;;2.51;42.33;97997.31;5046944;28;20047;-43
2023/02/27 00:09:30;;;;;;;1.40;1.27;;;-0.80;62.00;;;2.51;41.87;97992.06;5072473;28;20376;-46
2023/02/27 00:11:57;;;;;;;2.03;1.60;;;-0.70;61.80;;;2.53;42.06;97997.22;5072307;28;20041;-47
2023/02/27 00:14:25;;;;;;;3.30;1.47;;;-0.70;61.80;;;2.53;42.24;97997.22;5072215;28;20420;-47
2023/02/27 00:16:52;;;;;;;2.60;1.30;;;-0.70;62.40;;;2.54;41.95;97991.88;5072285;28;20055;-45
2023/02/27 00:19:20;;;;;;;2.93;1.70;;;-0.70;62.20;;;2.53;42.08;98000.69;5054743;28;20530;-43
2023/02/27 00:21:48;;;;;;;2.70;1.57;;;-0.70;62.10;;;2.52;42.33;97999.00;5071989;28;20048;-46
2023/02/27 00:24:15;;;;;;;2.23;1.30;;;-0.80;62.60;;;2.56;41.98;97997.88;5072162;28;20047;-44
2023/02/27 00:26:43;;;;;;;3.43;1.73;;;-0.80;62.60;;;2.58;41.72;97999.53;5071719;28;20048;-48
2023/02/27 00:29:10;;;;;;;1.67;1.57;;;-0.80;62.80;;;2.55;42.38;97998.78;5037622;28;20053;-44
2023/02/27 00:31:38;;;;;;;4.37;1.60;;;-0.80;62.80;;;2.55;42.08;98004.06;5071817;28;20048;-44
2023/02/27 00:34:05;;;;;;;3.10;1.80;;;-0.90;63.00;;;2.54;42.17;98004.19;5036899;28;20052;-46
2023/02/27 00:36:35;;;;;;;3.27;2.23;;;-0.90;63.10;;;2.54;42.25;98001.56;5052740;28;20059;-42
2023/02/27 00:39:03;;;;;;;4.83;2.57;;;-0.90;63.30;;;2.53;42.61;97998.06;5063722;28;20495;-43
2023/02/27 00:41:31;;;;;;;5.60;3.10;;;-0.90;63.70;;;2.51;42.45;97997.31;5072039;28;20043;-45
2023/02/27 00:43:58;;;;;;;7.43;3.57;;;-0.90;63.40;;;2.52;42.17;97991.13;5071715;28;20288;-44
2023/02/27 00:46:26;;;;;;;5.57;2.93;;;-0.80;63.40;;;2.53;42.71;97999.84;5071501;28;20416;-50
2023/02/27 00:48:53;;;;;;;7.47;4.43;;;-0.90;63.50;;;2.51;42.41;97999.94;5053154;28;20427;-45
2023/02/27 00:51:21;;;;;;;8.10;3.13;;;-0.90;63.80;;;2.49;42.51;97998.38;5053651;28;20045;-44
2023/02/27 00:53:49;;;;;;;5.50;3.10;;;-1.00;64.00;;;2.47;42.79;98001.09;5071592;28;20419;-47
2023/02/27 00:56:16;;;;;;;7.47;3.20;;;-1.00;64.10;;;2.49;42.19;97993.94;5053713;28;20072;-45
2023/02/27 00:58:44;;;;;;;6.10;3.30;;;-1.00;64.20;;;2.46;42.58;98002.06;5053608;28;20060;-47
2023/02/27 01:01:12;;;;;;;8.10;3.50;;;-1.00;63.70;;;2.45;42.65;97991.63;5049770;28;20060;-43
2023/02/27 01:03:40;;;;;;;4.37;2.50;;;-1.00;64.50;;;2.44;42.52;97993.41;5068089;28;20040;-43
2023/02/27 01:06:07;;;;;;;5.73;2.60;;;-1.00;64.50;;;2.41;42.81;97993.63;5069145;28;20377;-44
2023/02/27 01:08:35;;;;;;;5.77;2.33;;;-1.00;64.40;;;2.41;42.84;97992.78;5053224;28;20044;-45
2023/02/27 01:11:04;;;;;;;5.90;2.60;;;-1.10;64.90;;;2.36;43.14;97993.94;5052801;28;20538;-44
2023/02/27 01:13:32;;;;;;;8.80;3.80;;;-1.10;64.90;;;2.35;42.62;97996.66;5053512;28;20048;-43
2023/02/27 01:15:59;;;;;;;5.73;3.43;;;-1.20;65.30;;;2.30;42.80;97990.84;5052021;28;20063;-47
2023/02/27 01:18:28;;;;;;;6.90;3.93;;;-1.20;65.40;;;2.29;42.73;97991.81;5070984;28;20048;-43
2023/02/27 01:20:56;;;;;;;7.23;3.47;;;-1.30;65.70;;;2.26;42.76;97989.38;5071078;28;20040;-45
2023/02/27 01:23:23;;;;;;;8.77;3.30;;;-1.30;65.80;;;2.22;43.32;97996.63;5071284;28;20041;-46
2023/02/27 01:25:51;;;;;;;5.33;2.63;;;-1.30;66.30;;;2.17;43.29;97996.94;5070793;28;20043;-45
2023/02/27 01:28:19;;;;;;;4.53;2.23;;;-1.40;66.40;;;2.14;43.17;97999.75;5053234;28;20393;-44
2023/02/27 01:30:47;;;;;;;6.70;2.43;;;-1.40;67.70;;;2.12;43.18;97999.00;5053104;28;20519;-43
2023/02/27 01:33:14;;;;;;;4.13;2.50;;;-1.40;67.00;;;2.11;43.64;97999.09;5053003;28;20067;-48
2023/02/27 01:35:42;;;;;;;3.70;2.37;;;-1.40;66.90;;;2.12;43.60;97992.91;5070696;28;20049;-44
2023/02/27 01:38:11;;;;;;;6.47;3.27;;;-1.40;67.20;;;2.10;43.53;97990.38;5036402;28;20055;-45
2023/02/27 01:40:41;;;;;;;6.10;2.90;;;-1.40;67.30;;;2.13;43.58;97990.19;5053100;28;20059;-43
2023/02/27 01:43:17;;;;;;;4.33;2.43;;;-1.30;67.20;;;2.11;43.22;97985.97;5052640;28;20067;-44
2023/02/27 01:45:47;;;;;;;6.03;2.97;;;-1.40;67.10;;;2.12;43.86;97980.63;5051989;28;20041;-44
2023/02/27 01:48:27;;;;;;;5.10;2.40;;;-1.30;67.30;;;2.12;43.94;97985.03;5036464;28;20511;-44
2023/02/27 01:51:13;;;;;;;6.83;2.27;;;-1.40;67.60;;;2.05;43.77;97984.56;5045660;28;20052;-45
2023/02/27 01:53:45;;;;;;;5.70;2.53;;;-1.40;68.10;;;2.05;44.08;97981.09;5051123;28;20051;-47
2023/02/27 01:56:20;;;;;;;4.13;2.40;;;-1.40;68.40;;;2.04;44.26;97982.06;5044507;28;20052;-43
2023/02/27 01:58:50;;;;;;;3.60;2.70;;;-1.50;68.50;;;2.05;43.80;97986.38;5052576;28;20061;-46
2023/02/27 02:01:20;;;;;;;4.47;2.80;;;-1.40;68.60;;;2.07;43.83;97985.31;5075682;28;20052;-44
2023/02/27 02:04:14;;;;;;;7.17;2.93;;;-1.40;68.50;;;2.04;44.00;97980.28;5059295;28;20445;-46
2023/02/27 02:06:49;;;;;;;4.43;2.40;;;-1.40;68.60;;;2.04;44.17;97984.69;5053198;28;20045;-44
2023/02/27 02:09:20;;;;;;;5.80;3.00;;;-1.40;68.60;;;2.05;44.40;97984.56;5036665;28;20055;-43
2023/02/27 02:11:48;;;;;;;3.97;2.43;;;-1.40;68.90;;;2.05;43.94;97987.19;5042977;28;20049;-45
2023/02/27 02:14:17;;;;;;;3.70;2.50;;;-1.40;68.60;;;2.03;44.27;97983.00;5075764;28;20059;-48
2023/02/27 02:17:38;;;;;;;2.83;1.93;;;-1.40;69.00;;;1.94;44.48;97984.44;5058334;28;20055;-44
2023/02/27 02:20:57;;;;;;;4.87;2.77;;;-1.40;69.10;;;1.96;44.03;97985.19;5055156;28;20056;-45
2023/02/27 02:24:07;;;;;;;4.57;2.60;;;-1.40;69.30;;;1.94;44.48;97987.06;5071125;28;20036;-49
2023/02/27 02:27:09;;;;;;;4.37;2.23;;;-1.40;69.50;;;1.90;43.89;97988.19;5072512;28;20107;-45
2023/02/27 02:30:18;;;;;;;5.67;2.30;;;-1.50;69.40;;;1.85;44.16;97985.88;5054509;28;20045;-47
2023/02/27 02:33:07;;;;;;;10.60;2.87;;;-1.60;69.80;;;1.86;44.75;97986.69;5041515;28;20054;-45
2023/02/27 02:36:30;;;;;;;3.97;1.90;;;-1.50;69.90;;;1.81;44.45;97980.94;5058591;28;20071;-45
2023/02/27 02:39:12;;;;;;;3.27;2.23;;;-1.50;70.40;;;1.86;44.21;97977.06;5057631;28;20048;-50
2023/02/27 02:42:11;;;;;;;4.00;2.00;;;-1.50;70.30;;;1.88;44.57;97980.44;5042370;28;20419;-44
2023/02/27 02:44:50;;;;;;;3.27;1.83;;;-1.60;69.80;;;1.89;44.44;97974.22;5054730;28;20033;-47
2023/02/27 02:47:50;;;;;;;4.03;2.37;;;-1.60;70.00;;;1.83;44.77;97979.03;5052908;28;20056;-46
2023/02/27 02:51:14;;;;;;;3.53;2.03;;;-1.60;70.60;;;1.81;44.97;97983.56;5055224;28;20041;-45
2023/02/27 02:54:08;;;;;;;2.63;2.00;;;-1.60;70.10;;;1.82;44.88;97983.44;5035757;28;20056;-47
2023/02/27 02:56:42;;;;;;;;;;;-1.50;70.90;;;1.72;44.54;97985.78;5039676;28;20413;-45
2023/02/27 02:59:23;;;;;;;2.03;1.50;;;-1.60;71.00;;;1.81;44.74;97994.06;5042650;28;19986;-47
2023/02/27 03:01:59;;;;;;;3.80;2.13;;;-1.60;70.30;;;1.83;44.63;97989.53;5076798;28;20048;-48
2023/02/27 03:04:52;;;;;;;4.10;1.73;;;-1.60;70.30;;;1.80;44.84;97993.19;5076600;28;20036;-50
2023/02/27 03:07:49;;;;;;;3.33;2.00;;;-1.60;70.10;;;1.85;44.87;97995.53;5023948;28;20040;-43
2023/02/27 03:10:29;;;;;;;3.47;1.70;;;-1.60;70.20;;;1.86;44.72;97986.69;5054445;28;20036;-45
2023/02/27 03:13:08;;;;;;;3.80;1.63;;;-1.60;70.30;;;1.87;44.78;97986.59;5038871;28;20416;-42
2023/02/27 03:16:20;;;;;;;2.57;1.80;;;-1.50;70.10;;;1.78;45.27;97987.19;5039160;28;20059;-46
2023/02/27 03:19:32;;;;;;;2.87;2.07;;;-1.50;70.30;;;1.81;44.79;97994.88;5055668;28;20045;-45
2023/02/27 03:22:09;;;;;;;1.83;1.50;;;-1.50;70.30;;;1.87;45.08;97993.66;5041456;28;20264;-45
2023/02/27 03:24:47;;;;;;;3.73;2.50;;;-1.50;69.90;;;1.88;44.83;98003.19;5039042;28;20048;-45
2023/02/27 03:27:17;;;;;;;9.80;4.67;;;-1.50;70.00;;;1.88;45.05;97997.94;5047447;28;20040;-42
2023/02/27 03:30:19;;;;;;;5.87;2.97;;;-1.50;70.30;;;1.79;45.10;97995.94;5055298;28;20048;-47
2023/02/27 03:33:00;;;;;;;4.90;2.33;;;-1.60;70.60;;;1.84;45.31;97992.06;5051524;28;20067;-47
2023/02/27 03:36:03;;;;;;;5.47;3.23;;;-1.60;70.90;;;1.75;45.26;97996.13;5048585;28;20044;-48
2023/02/27 03:38:47;;;;;;;4.07;2.03;;;-1.60;71.30;;;1.82;45.15;98001.81;5044616;28;20049;-44
2023/02/27 03:41:41;;;;;;;3.23;2.00;;;-1.60;70.90;;;1.79;45.26;98004.66;5032037;28;20047;-43
2023/02/27 03:44:55;;;;;;;2.83;1.83;;;-1.60;70.80;;;1.82;44.72;98003.59;5068530;28;20056;-42
2023/02/27 03:47:23;;;;;;;2.40;1.70;;;-1.60;70.80;;;1.83;45.07;98003.50;5034308;28;20052;-44
2023/02/27 03:49:51;;;;;;;2.90;2.20;;;-1.60;70.80;;;1.84;44.97;98010.47;5054621;28;20060;-44
2023/02/27 03:52:21;;;;;;;2.63;1.80;;;-1.60;71.00;;;1.84;45.46;98017.47;5054443;28;20044;-45
2023/02/27 03:55:26;;;;;;;4.30;2.23;;;-1.60;71.10;;;1.80;44.98;98023.84;5037690;28;20377;-46
2023/02/27 03:57:53;;;;;;;;;;;-1.60;70.80;;;1.71;45.19;98015.63;5041269;28;20059;-45
2023/02/27 04:00:24;;;;;;;2.30;1.63;;;-1.60;71.30;;;1.85;45.21;98019.16;5038538;28;20311;-43
2023/02/27 04:02:54;;;;;;;3.40;2.13;;;-1.60;70.60;;;1.82;45.38;98028.06;5054467;28;20361;-44
2023/02/27 04:05:26;;;;;;;4.70;2.43;;;-1.60;70.90;;;1.81;45.09;98026.38;5054018;28;20063;-46
2023/02/27 04:08:20;;;;;;;3.60;2.08;;;-1.60;70.90;;;1.80;45.18;98021.22;5039371;28;20051;-44
2023/02/27 04:11:18;;;;;;;3.03;1.83;;;-1.50;71.10;;;1.77;45.63;98032.78;5072743;28;20044;-43
2023/02/27 04:14:19;;;;;;;3.53;1.70;;;-1.50;71.00;;;1.82;45.04;98024.59;5068483;28;20033;-48
2023/02/27 04:16:56;;;;;;;4.27;1.97;;;-1.50;70.90;;;1.85;45.54;98029.66;5067596;28;20043;-44
2023/02/27 04:19:31;;;;;;;3.27;1.80;;;-1.50;70.90;;;1.84;45.13;98034.09;5048215;28;20043;-49
2023/02/27 04:22:21;;;;;;;3.93;2.00;;;-1.60;70.70;;;1.84;45.14;98027.97;5054645;28;20103;-45
2023/02/27 04:25:04;;;;;;;4.27;1.87;;;-1.60;70.90;;;1.79;45.53;98030.91;5071520;28;20412;-45
2023/02/27 04:28:18;;;;;;;2.60;1.90;;;-1.60;71.10;;;1.75;45.31;98030.25;5031702;28;20526;-47
2023/02/27 04:31:13;;;;;;;6.07;2.10;;;-1.60;71.00;;;1.80;45.63;98032.56;5052847;28;20204;-47
2023/02/27 04:33:55;;;;;;;2.67;1.93;;;-1.60;70.80;;;1.82;45.65;98035.09;5051265;28;20411;-47
2023/02/27 04:36:55;;;;;;;2.90;1.73;;;-1.60;71.20;;;1.73;45.11;98029.50;5047491;28;20051;-47
2023/02/27 04:39:43;;;;;;;3.53;2.00;;;-1.60;71.40;;;1.76;45.30;98026.69;5048540;28;20045;-49
2023/02/27 04:42:17;;;;;;;4.70;2.30;;;-1.60;71.40;;;1.80;45.27;98034.34;5055700;28;20064;-48
2023/02/27 04:44:46;;;;;;;3.53;1.90;;;-1.60;71.30;;;1.80;45.65;98032.56;5054047;28;20044;-46
2023/02/27 04:47:16;;;;;;;3.23;1.83;;;-1.60;71.20;;;1.80;45.15;98029.94;5053833;28;20047;-45
2023/02/27 04:49:55;;;;;;;5.20;2.37;;;-1.60;71.10;;;1.79;45.10;98032.69;5054415;28;20431;-43
2023/02/27 04:52:53;;;;;;;6.00;3.10;;;-1.60;71.20;;;1.73;45.62;98032.13;5064305;28;20037;-43
2023/02/27 04:55:32;;;;;;;7.03;3.10;;;-1.60;71.50;;;1.78;45.78;98029.19;5044396;28;20079;-50
2023/02/27 04:58:32;;;;;;;9.93;3.20;;;-1.60;71.30;;;1.70;45.68;98028.84;5054109;28;20074;-43
2023/02/27 05:01:08;;;;;;;4.77;2.57;;;-1.70;71.30;;;1.77;45.34;98032.78;5063205;28;20053;-48
2023/02/27 05:03:44;;;;;;;3.97;2.47;;;-1.70;71.50;;;1.75;45.29;98032.03;5054515;28;20040;-42
2023/02/27 05:06:16;;;;;;;6.40;2.87;;;-1.70;71.60;;;1.77;45.57;98030.16;5053961;28;20415;-48
2023/02/27 05:09:27;;;;;;;6.47;2.97;;;-1.60;71.30;;;1.67;45.26;98037.75;5053369;28;20045;-44
2023/02/27 05:12:26;;;;;;;8.20;4.10;;;-1.60;71.10;;;1.67;45.78;98029.06;5052238;28;20045;-46
2023/02/27 05:15:21;;;;;;;9.90;3.77;;;-1.70;71.50;;;1.69;45.48;98037.69;5070902;28;20107;-46
2023/02/27 05:18:12;;;;;;;7.40;3.63;;;-1.60;71.40;;;1.70;45.97;98041.97;5054815;28;20048;-45
2023/02/27 05:20:49;;;;;;;7.07;3.33;;;-1.60;71.20;;;1.72;45.38;98038.28;5050340;28;20442;-46
2023/02/27 05:23:35;;;;;;;5.40;3.23;;;-1.70;71.40;;;1.71;45.44;98044.50;5053134;28;20055;-46
2023/02/27 05:26:25;;;;;;;10.33;4.37;;;-1.70;71.50;;;1.72;45.50;98047.97;5054216;28;20036;-43
2023/02/27 05:29:05;;;;;;;5.67;3.00;;;-1.70;71.50;;;1.75;45.80;98050.41;5071511;28;20040;-47
2023/02/27 05:32:03;;;;;;;4.03;2.60;;;-1.70;71.30;;;1.75;45.46;98046.00;5048153;28;20041;-44
2023/02/27 05:34:53;;;;;;;6.10;3.13;;;-1.70;71.40;;;1.71;46.15;98049.75;5049556;28;20036;-44
2023/02/27 05:37:33;;;;;;;4.60;3.13;;;-1.70;71.30;;;1.70;45.55;98049.84;5062848;28;20043;-43
2023/02/27 05:40:07;;;;;;;5.30;3.00;;;-1.70;71.10;;;1.70;46.03;98048.06;5053746;28;20041;-45
2023/02/27 05:42:46;;;;;;;4.13;2.55;;;-1.60;70.80;;;1.70;45.54;98053.31;5054075;28;20517;-43
2023/02/27 05:45:24;;;;;;;5.73;2.33;;;-1.70;71.00;;;1.71;45.67;98051.53;5053486;28;20522;-43
2023/02/27 05:48:10;;;;;;;7.80;2.47;;;-1.60;70.70;;;1.66;45.90;98053.59;5054074;28;20044;-45
2023/02/27 05:50:39;;;;;;;6.50;2.93;;;-1.70;70.90;;;1.71;45.72;98059.41;5065533;28;20040;-48
2023/02/27 05:53:14;;;;;;;4.53;3.27;;;-1.70;70.90;;;1.75;46.16;98066.16;5053314;28;20040;-43
2023/02/27 05:55:53;;;;;;;5.00;3.07;;;-1.60;70.80;;;1.72;45.38;98064.53;5070489;28;20045;-49
2023/02/27 05:58:43;;;;;;;3.93;2.60;;;-1.60;70.90;;;1.68;45.92;98063.06;5053305;28;20047;-45
2023/02/27 06:01:11;;;;;;;4.33;2.40;;;-1.60;71.00;;;1.71;45.99;98055.00;5053209;28;20045;-45
2023/02/27 06:03:40;;;;;;;5.37;2.97;;;-1.60;70.70;;;1.71;45.67;98054.16;5071141;28;20052;-45
2023/02/27 06:06:15;;;;;;;5.47;2.70;;;-1.70;70.80;;;1.69;46.05;98061.28;5052253;28;20048;-45
2023/02/27 06:08:43;;;;;;;5.63;3.50;;;-1.70;71.30;;;1.70;45.61;98055.94;5053405;28;20040;-46
2023/02/27 06:11:12;;;;;;;5.63;3.33;;;-1.70;71.20;;;1.71;45.68;98065.50;5052960;28;20041;-45
2023/02/27 06:13:39;;;;;;;4.67;3.23;;;-1.70;71.20;;;1.71;45.40;98057.63;5070831;28;20416;-45
2023/02/27 06:16:11;;;;;;;4.70;2.97;;;-1.70;71.00;;;1.73;45.22;98062.78;5070078;28;20045;-46
2023/02/27 06:18:39;;;;;;;4.57;3.13;;;-1.70;71.10;;;1.70;45.90;98076.94;5053133;28;20515;-47
2023/02/27 06:21:07;;;;;;;5.63;3.10;;;-1.80;71.10;;;1.71;45.97;98073.38;5070683;28;20044;-44
2023/02/27 06:23:35;;;;;;;9.10;4.03;;;-1.70;71.40;;;1.69;45.74;98071.78;5071036;28;20044;-44
2023/02/27 06:26:02;;;;;;;6.30;3.63;;;-1.80;71.60;;;1.66;45.51;98075.44;5070087;28;20307;-47
2023/02/27 06:28:30;;;;;;;6.10;3.57;;;-1.80;71.50;;;1.66;45.47;98074.59;5070351;28;20041;-46
2023/02/27 06:30:57;;;;;;;6.30;3.43;;;-1.80;71.80;;;1.68;45.97;98077.97;5070318;28;20403;-49
2023/02/27 06:33:25;;;;;;;6.03;3.60;;;-1.80;71.80;;;1.64;45.75;98076.47;5070828;28;20041;-46
2023/02/27 06:35:53;;;;;;;5.63;3.33;;;-1.90;72.10;;;1.63;45.68;98091.38;5070247;28;20041;-47
2023/02/27 06:38:20;;;;;;;8.40;3.50;;;-1.90;72.10;;;1.64;46.20;98089.59;5070299;28;20063;-48
2023/02/27 06:40:50;;;;;;;9.53;5.70;;;-1.90;72.10;;;1.63;46.26;98083.50;5070403;28;20388;-45
2023/02/27 06:43:18;;;;;;;8.13;5.17;;;-1.80;72.30;;;1.68;45.77;98086.69;5070378;28;20052;-45
2023/02/27 06:45:45;;;;;;;7.50;4.33;;;-1.80;72.30;;;1.69;46.40;98093.63;5070099;28;20040;-43
2023/02/27 06:48:13;;;;;;;11.33;4.57;;;-1.80;72.20;;;1.70;46.56;98091.84;5073222;28;20048;-48
2023/02/27 06:50:41;;;;;;;12.57;5.77;;;-1.80;72.20;;;1.71;46.43;98086.50;5074207;28;20043;-48
2023/02/27 06:53:08;;;;;;;7.83;3.43;;;-1.80;72.40;;;1.71;46.47;98089.13;5073946;28;20051;-48
2023/02/27 06:55:36;;;;;;;7.07;3.70;;;-1.80;72.50;;;1.74;46.48;98095.97;5073514;28;20615;-43
2023/02/27 06:58:03;;;;;;;5.60;3.17;;;-1.70;72.90;;;1.76;46.05;98091.47;5073635;28;20044;-47
2023/02/27 07:00:31;;;;;;;10.00;4.17;;;-1.70;72.80;;;1.80;46.53;98095.56;5074020;28;20095;-44
2023/02/27 07:03:02;;;;;;;7.13;3.70;;;-1.70;72.50;;;1.84;46.74;98098.84;5074048;28;20267;-45
2023/02/27 07:05:30;;;;;;;5.90;3.37;;;-1.60;72.60;;;1.87;46.56;98101.31;5065966;28;20052;-49
2023/02/27 07:07:58;;;;;;;4.40;3.00;;;-1.60;72.30;;;1.86;45.98;98102.22;5056091;28;20044;-44
2023/02/27 07:10:25;;;;;;;9.93;4.30;;;-1.50;72.50;;;1.90;46.49;98106.34;5065392;28;20039;-49
2023/02/27 07:12:54;;;;;;;7.83;3.90;;;-1.50;72.50;;;1.96;46.44;98104.19;5073835;28;20040;-45
2023/02/27 07:15:21;;;;;;;5.80;4.17;;;-1.50;72.20;;;1.99;46.41;98102.31;5073263;28;20040;-45
2023/02/27 07:17:49;;;;;;;6.53;3.60;;;-1.50;72.30;;;1.99;46.13;98100.53;5073298;28;20044;-44
2023/02/27 07:20:16;;;;;;;9.33;4.10;;;-1.40;72.50;;;2.03;46.46;98106.44;5073360;28;20047;-47
2023/02/27 07:22:44;;;;;;;7.47;4.17;;;-1.40;72.00;;;2.04;46.59;98108.97;5073357;28;20041;-45
2023/02/27 07:25:11;;;;;;;7.23;3.63;;;-1.30;71.80;;;2.06;46.62;98106.25;5073034;28;20048;-45
2023/02/27 07:27:39;;;;;;;6.73;4.03;;;-1.30;72.10;;;2.10;46.39;98107.75;5073405;28;20514;-43
2023/02/27 07:30:07;;;;;;;13.40;6.40;;;-1.30;72.40;;;2.14;46.40;98112.69;5073417;28;20052;-46
2023/02/27 07:32:35;;;;;;;5.37;3.40;;;-1.20;72.10;;;2.15;46.80;98117.03;5073159;28;20051;-46
2023/02/27 07:35:03;;;;;;;7.13;3.17;;;-1.20;72.00;;;2.18;46.45;98113.34;5072916;28;20041;-44
2023/02/27 07:37:31;;;;;;;7.13;3.47;;;-1.20;71.90;;;2.21;46.70;98110.53;5055567;28;20051;-47
2023/02/27 07:39:58;;;;;;;6.47;3.57;;;-1.20;71.50;;;2.22;46.75;98122.72;5073158;28;20049;-45
2023/02/27 07:42:26;;;;;;;6.37;3.40;;;-1.10;71.20;;;2.26;46.75;98121.59;5072947;28;20042;-45
2023/02/27 07:44:54;;;;;;;9.77;3.87;;;-1.10;71.00;;;2.30;46.35;98124.84;5054808;28;20053;-46
2023/02/27 07:47:21;;;;;;;9.40;5.17;;;-1.00;70.70;;;2.34;46.26;98118.47;5072949;28;20423;-44
2023/02/27 07:49:49;;;;;;;8.03;3.57;;;-1.00;71.00;;;2.36;46.36;98121.84;5073096;28;20048;-44
2023/02/27 07:52:17;;;;;;;5.93;3.40;;;-1.00;70.50;;;2.42;45.97;98120.59;5072912;28;20055;-46
2023/02/27 07:54:45;;;;;;;9.20;5.43;;;-0.90;70.30;;;2.49;46.54;98122.75;5069449;28;20040;-46
2023/02/27 07:57:13;;;;;;;10.93;4.73;;;-0.80;70.00;;;2.50;45.88;98113.94;5072418;28;20522;-43
2023/02/27 07:59:40;;;;;;;5.90;2.73;;;-0.80;69.20;;;2.51;46.06;98120.84;5071111;28;20059;-44
2023/02/27 08:02:11;;;;;;;6.20;3.57;;;-0.80;68.70;;;2.54;45.74;98111.94;5072745;28;20215;-48
2023/02/27 08:04:38;;;;;;;7.63;3.53;;;-0.80;69.40;;;2.57;46.09;98114.34;5053459;28;20049;-44
2023/02/27 08:07:07;;;;;;;9.90;4.33;;;-0.80;69.40;;;2.62;46.03;98119.31;5072444;28;20056;-45
2023/02/27 08:09:35;;;;;;;7.97;4.13;;;-0.70;69.30;;;2.66;46.17;98116.41;5068815;28;20032;-45
2023/02/27 08:12:03;;;;;;;7.97;4.67;;;-0.60;69.00;;;2.74;46.05;98115.91;5072581;28;20067;-48
2023/02/27 08:14:31;;;;;;;6.03;3.43;;;-0.60;68.50;;;2.76;45.65;98114.00;5064275;28;20036;-45
2023/02/27 08:16:59;;;;;;;10.90;4.70;;;-0.60;68.20;;;2.82;45.36;98118.84;5072597;28;20056;-45
2023/02/27 08:19:27;;;;;;;5.63;3.47;;;-0.50;67.50;;;2.74;45.76;98126.41;5072202;28;20044;-44
2023/02/27 08:21:54;;;;;;;9.53;3.70;;;-0.50;67.50;;;2.83;45.60;98128.44;5072435;28;20045;-43
2023/02/27 08:24:22;;;;;;;6.70;3.70;;;-0.40;67.10;;;2.90;45.58;98126.25;5071907;28;20045;-43
2023/02/27 08:26:50;;;;;;;8.20;3.67;;;-0.40;67.40;;;2.97;45.56;98130.16;5072009;28;20047;-45
2023/02/27 08:29:17;;;;;;;5.67;2.97;;;-0.30;67.50;;;3.03;45.30;98131.53;5072129;28;20045;-43
2023/02/27 08:31:45;;;;;;;4.60;2.57;;;-0.20;66.60;;;3.06;45.48;98134.78;5072074;28;20052;-44
2023/02/27 08:34:13;;;;;;;3.87;2.57;;;-0.20;66.30;;;3.10;45.34;98130.16;5072097;28;20032;-43
2023/02/27 08:36:40;;;;;;;3.93;2.80;;;-0.20;66.20;;;3.12;44.96;98136.16;5071950;28;20041;-45
2023/02/27 08:39:09;;;;;;;4.47;2.40;;;-0.20;65.30;;;3.12;44.87;98123.88;5072016;28;20051;-43
2023/02/27 08:41:37;;;;;;;5.90;2.53;;;-0.10;64.70;;;3.15;45.12;98125.44;5071942;28;20071;-44
2023/02/27 08:44:04;;;;;;;5.33;2.77;;;0.00;65.30;;;3.23;45.05;98127.56;5071862;28;20044;-46
2023/02/27 08:46:32;;;;;;;5.50;2.30;;;0.00;65.10;;;3.26;44.76;98130.00;5055935;28;20041;-47
2023/02/27 08:48:59;;;;;;;4.07;2.70;;;0.00;64.00;;;3.29;44.59;98127.97;5048236;28;20044;-43
2023/02/27 08:51:27;;;;;;;5.53;2.43;;;0.10;63.80;;;3.37;44.51;98129.25;5071683;28;20040;-44
2023/02/27 08:53:57;;;;;;;3.57;2.30;;;0.10;63.70;;;3.40;44.29;98137.78;5071766;28;20040;-44
2023/02/27 08:56:26;;;;;;;3.27;2.10;;;0.20;63.00;;;3.44;44.31;98138.44;5070397;28;20051;-46
2023/02/27 08:58:55;;;;;;;5.87;2.30;;;0.20;63.00;;;3.49;44.19;98144.22;5052997;28;20056;-48
2023/02/27 09:01:25;;;;;;;4.20;2.30;;;0.20;62.50;;;3.49;43.75;98141.56;5053837;28;20063;-44
2023/02/27 09:03:54;;;;;;;3.53;2.13;;;0.30;61.40;;;3.51;44.06;98144.97;5071544;28;20045;-47
2023/02/27 09:06:21;;;;;;;3.33;2.00;;;0.30;61.10;;;3.54;43.66;98142.94;5053162;28;20508;-46
2023/02/27 09:08:52;;;;;;;3.50;2.20;;;0.30;62.10;;;3.61;44.14;98140.75;5071322;28;20040;-46
2023/02/27 09:11:21;;;;;;;4.87;2.73;;;0.40;61.80;;;3.69;43.77;98151.59;5070564;28;20507;-45
2023/02/27 09:13:50;;;;;;;5.00;2.77;;;0.40;61.00;;;3.71;43.54;98143.59;5071405;28;20518;-44
2023/02/27 09:16:19;;;;;;;4.27;2.30;;;0.50;61.00;;;3.78;43.62;98146.63;5070824;28;20040;-45
2023/02/27 09:18:48;;;;;;;3.97;2.20;;;0.60;61.00;;;3.85;43.25;98147.91;5070917;28;20419;-49
2023/02/27 09:21:16;;;;;;;5.57;2.43;;;0.60;60.60;;;3.88;43.30;98143.28;5053458;28;20049;-51
2023/02/27 09:23:44;;;;;;;5.20;3.07;;;0.60;59.80;;;3.95;43.29;98151.56;5071096;28;20051;-45
2023/02/27 09:26:12;;;;;;;6.27;2.77;;;0.70;60.30;;;3.97;42.97;98149.66;5069975;28;20286;-44
2023/02/27 09:28:39;;;;;;;5.03;2.10;;;0.70;59.70;;;4.02;42.87;98152.84;5071151;28;20044;-44
2023/02/27 09:31:08;;;;;;;3.73;2.03;;;0.70;60.00;;;4.07;42.81;98153.38;5071035;28;20059;-46
2023/02/27 09:33:37;;;;;;;3.93;2.40;;;0.80;59.40;;;4.12;42.53;98153.88;5063348;28;20041;-47
2023/02/27 09:36:06;;;;;;;2.63;2.00;;;0.80;59.40;;;4.15;42.85;98155.47;5070328;28;20051;-49
2023/02/27 09:38:34;;;;;;;6.93;2.37;;;0.90;59.10;;;4.20;42.51;98163.03;5071178;28;20048;-44
2023/02/27 09:41:05;;;;;;;4.10;2.23;;;0.90;58.90;;;4.25;42.11;98164.41;5071024;28;20127;-48
2023/02/27 09:43:46;;;;;;;8.47;2.17;;;1.00;58.50;;;4.28;42.64;98161.53;5071070;28;20055;-47
2023/02/27 09:46:24;;;;;;;2.50;1.87;;;1.00;58.30;;;4.34;42.31;98161.13;5052914;28;20048;-48
2023/02/27 09:48:59;;;;;;;2.87;1.83;;;1.10;58.10;;;4.39;42.17;98159.94;5070874;28;20044;-45
2023/02/27 09:51:28;;;;;;;3.13;2.30;;;1.10;57.70;;;4.43;41.65;98161.41;5053264;28;20047;-47
2023/02/27 09:53:59;;;;;;;3.67;2.33;;;1.20;57.10;;;4.44;41.69;98155.16;5070937;28;20531;-46
2023/02/27 09:56:31;;;;;;;3.43;2.30;;;1.20;56.60;;;4.49;41.72;98166.22;5052178;28;20044;-46
2023/02/27 09:59:13;;;;;;;7.57;3.87;;;1.30;57.00;;;4.53;41.40;98152.69;5052978;28;20043;-44
2023/02/27 10:01:57;;;;;;;5.53;2.53;;;1.30;56.80;;;4.56;41.54;98156.94;5047026;28;20033;-45
2023/02/27 10:04:39;;;;;;;7.53;3.22;;;1.30;56.00;;;4.63;41.13;98166.06;5053500;28;20420;-46
2023/02/27 10:07:11;;;;;;;4.93;2.97;;;1.40;55.40;;;4.68;41.81;98166.59;5045849;28;20045;-46
2023/02/27 10:09:49;;;;;;;5.60;2.87;;;1.40;55.20;;;4.73;41.21;98166.25;5053746;28;20037;-44
2023/02/27 10:12:25;;;;;;;10.70;3.47;;;1.50;55.70;;;4.79;41.08;98173.72;5070726;28;20492;-46
2023/02/27 10:15:04;;;;;;;7.70;3.97;;;1.60;55.80;;;4.84;40.98;98176.00;5070376;28;20045;-48
2023/02/27 10:17:43;;;;;;;5.13;3.50;;;1.70;55.10;;;4.84;40.54;98174.22;5069990;28;20055;-46
2023/02/27 10:20:30;;;;;;;3.77;2.67;;;1.70;53.30;;;4.82;40.78;98178.75;5060471;28;20052;-48
2023/02/27 10:23:06;;;;;;;6.53;2.67;;;1.70;54.00;;;4.93;40.48;98178.00;5057077;28;20036;-48
2023/02/27 10:25:44;;;;;;;4.33;2.57;;;1.80;54.40;;;4.97;40.99;98184.72;5057099;28;20487;-45
2023/02/27 10:28:15;;;;;;;4.50;2.40;;;1.80;54.00;;;5.06;40.77;98189.31;5057023;28;20045;-48
2023/02/27 10:30:55;;;;;;;5.50;2.70;;;1.90;54.00;;;5.09;39.37;98189.09;5056943;28;20047;-47
2023/02/27 10:33:35;;;;;;;4.27;2.60;;;2.00;51.00;;;5.08;39.48;98187.41;5057455;28;20427;-45
2023/02/27 10:36:10;;;;;;;4.30;3.20;;;2.00;50.20;;;5.00;39.26;98192.41;5074022;28;20052;-45
2023/02/27 10:38:54;;;;;;;3.80;2.53;;;2.00;52.20;;;5.02;39.42;98184.38;5074319;28;20412;-47
2023/02/27 10:41:22;;;;;;;5.37;2.80;;;2.00;52.00;;;5.09;39.36;98181.16;5074653;28;20048;-47
2023/02/27 10:43:56;;;;;;;3.90;2.60;;;2.10;52.10;;;5.09;38.62;98177.69;5056711;28;20041;-45
2023/02/27 10:46:26;;;;;;;;;;;2.10;51.20;;;5.03;39.44;98184.25;5041041;28;20048;-44
2023/02/27 10:48:59;;;;;;;7.63;2.20;;;2.10;49.50;;;5.15;39.00;98190.44;5056802;28;19924;-45
2023/02/27 10:51:32;;;;;;;4.43;2.70;;;2.10;51.90;;;5.17;39.07;98175.31;5073982;28;20052;-45
2023/02/27 10:54:17;;;;;;;3.15;2.42;;;2.10;50.50;;;5.16;39.13;98181.56;5074138;28;20496;-46
2023/02/27 10:56:52;;;;;;;3.57;2.10;;;2.10;49.90;;;5.22;38.01;98185.56;5062870;28;20047;-48
2023/02/27 10:59:30;;;;;;;5.27;2.60;;;2.20;49.70;;;5.19;38.69;98176.03;5056757;28;20048;-45
2023/02/27 11:02:01;;;;;;;4.00;2.50;;;2.10;50.70;;;5.25;39.18;98180.03;5074099;28;20041;-43
2023/02/27 11:04:33;;;;;;;7.77;2.70;;;2.20;51.10;;;5.33;37.98;98183.78;5073547;28;20051;-45